sensor_id;sensor_type;location;lat;lon;timestamp;pressure;altitude;pressure_sealevel;temperature;humidity
71465;BME280;59274;49.874;9.154;2022-09-25T00:01:36;99993.78;;;12.78;100.00
71465;BME280;59274;49.874;9.154;2022-09-25T00:04:03;99995.31;;;12.82;100.00
71465;BME280;59274;49.874;9.154;2022-09-25T00:06:29;99989.47;;;12.84;100.00
71465;BME280;59274;49.874;9.154;2022-09-25T00:08:56;99995.72;;;12.84;100.00
71465;BME280;59274;49.874;9.154;2022-09-25T00:11:24;99993.75;;;12.81;100.00
71465;BME280;59274;49.874;9.154;2022-09-25T00:13:52;99991.06;;;12.74;100.00
71465;BME280;59274;49.874;9.154;2022-09-25T00:16:20;99991.03;;;12.81;100.00
71465;BME280;59274;49.874;9.154;2022-09-25T00:18:46;99991.44;;;12.83;100.00
71465;BME280;59274;49.874;9.154;2022-09-25T00:21:31;99991.41;;;12.80;100.00
71465;BME280;59274;49.874;9.154;2022-09-25T00:24:01;99991.81;;;12.85;100.00
71465;BME280;59274;49.874;9.154;2022-09-25T00:26:30;99991.78;;;12.89;100.00
71465;BME280;59274;49.874;9.154;2022-09-25T00:28:57;99994.13;;;12.90;100.00
71465;BME280;59274;49.874;9.154;2022-09-25T00:31:24;99995.31;;;12.89;100.00
71465;BME280;59274;49.874;9.154;2022-09-25T00:33:51;99990.25;;;12.91;100.00
71465;BME280;59274;49.874;9.154;2022-09-25T00:36:17;99984.41;;;12.82;100.00
71465;BME280;59274;49.874;9.154;2022-09-25T00:38:42;99989.47;;;12.80;100.00
71465;BME280;59274;49.874;9.154;2022-09-25T00:41:11;99991.84;;;12.78;100.00
71465;BME280;59274;49.874;9.154;2022-09-25T00:43:42;99991.41;;;12.80;100.00
71465;BME280;59274;49.874;9.154;2022-09-25T00:46:30;99989.09;;;12.75;100.00
71465;BME280;59274;49.874;9.154;2022-09-25T00:49:09;99991.41;;;12.80;100.00
71465;BME280;59274;49.874;9.154;2022-09-25T00:51:43;99988.31;;;12.85;100.00
71465;BME280;59274;49.874;9.154;2022-09-25T00:54:20;99992.59;;;12.82;100.00
71465;BME280;59274;49.874;9.154;2022-09-25T00:56:49;99985.59;;;12.81;100.00
71465;BME280;59274;49.874;9.154;2022-09-25T00:59:20;99982.44;;;12.86;100.00
71465;BME280;59274;49.874;9.154;2022-09-25T01:01:47;99987.50;;;12.88;100.00
71465;BME280;59274;49.874;9.154;2022-09-25T01:04:13;99982.88;;;12.85;100.00
71465;BME280;59274;49.874;9.154;2022-09-25T01:06:40;99978.97;;;12.82;100.00
71465;BME280;59274;49.874;9.154;2022-09-25T01:09:06;99981.69;;;12.82;100.00
71465;BME280;59274;49.874;9.154;2022-09-25T01:11:31;99984.81;;;12.84;100.00
71465;BME280;59274;49.874;9.154;2022-09-25T01:13:59;99990.25;;;12.84;100.00
71465;BME280;59274;49.874;9.154;2022-09-25T01:19:31;99992.56;;;12.89;100.00
71465;BME280;59274;49.874;9.154;2022-09-25T01:27:29;99988.34;;;12.78;100.00
71465;BME280;59274;49.874;9.154;2022-09-25T01:35:20;99978.59;;;12.73;100.00
71465;BME280;59274;49.874;9.154;2022-09-25T01:37:57;99971.59;;;12.69;100.00
71465;BME280;59274;49.874;9.154;2022-09-25T01:40:37;99971.59;;;12.65;100.00
71465;BME280;59274;49.874;9.154;2022-09-25T01:43:14;99977.44;;;12.67;100.00
71465;BME280;59274;49.874;9.154;2022-09-25T01:45:49;99974.34;;;12.62;100.00
71465;BME280;59274;49.874;9.154;2022-09-25T01:48:18;99973.94;;;12.60;100.00
71465;BME280;59274;49.874;9.154;2022-09-25T01:51:13;99973.16;;;12.59;100.00
71465;BME280;59274;49.874;9.154;2022-09-25T01:53:45;99974.75;;;12.57;100.00
71465;BME280;59274;49.874;9.154;2022-09-25T01:56:25;99980.19;;;12.53;100.00
71465;BME280;59274;49.874;9.154;2022-09-25T01:59:12;99974.72;;;12.60;100.00
71465;BME280;59274;49.874;9.154;2022-09-25T02:01:42;99966.16;;;12.62;100.00
71465;BME280;59274;49.874;9.154;2022-09-25T02:04:33;99967.72;;;12.59;100.00
71465;BME280;59274;49.874;9.154;2022-09-25T02:07:03;99966.16;;;12.62;100.00
71465;BME280;59274;49.874;9.154;2022-09-25T02:09:38;99963.44;;;12.62;100.00
71465;BME280;59274;49.874;9.154;2022-09-25T02:12:13;99961.50;;;12.62;100.00
71465;BME280;59274;49.874;9.154;2022-09-25T02:14:45;99964.22;;;12.62;100.00
71465;BME280;59274;49.874;9.154;2022-09-25T02:17:19;99961.50;;;12.62;100.00
71465;BME280;59274;49.874;9.154;2022-09-25T02:20:06;99961.50;;;12.55;100.00
71465;BME280;59274;49.874;9.154;2022-09-25T02:22:53;99961.91;;;12.53;100.00
71465;BME280;59274;49.874;9.154;2022-09-25T02:25:29;99960.34;;;12.52;100.00
71465;BME280;59274;49.874;9.154;2022-09-25T02:27:59;99967.38;;;12.50;100.00
71465;BME280;59274;49.874;9.154;2022-09-25T02:30:24;99964.63;;;12.53;100.00
71465;BME280;59274;49.874;9.154;2022-09-25T02:32:50;99961.50;;;12.55;100.00
71465;BME280;59274;49.874;9.154;2022-09-25T02:35:15;99959.94;;;12.57;100.00
71465;BME280;59274;49.874;9.154;2022-09-25T02:37:41;99960.31;;;12.60;100.00
71465;BME280;59274;49.874;9.154;2022-09-25T02:40:07;99958.78;;;12.55;100.00
71465;BME280;59274;49.874;9.154;2022-09-25T02:42:48;99962.69;;;12.54;100.00
71465;BME280;59274;49.874;9.154;2022-09-25T02:45:27;99959.53;;;12.59;100.00
71465;BME280;59274;49.874;9.154;2022-09-25T02:53:37;99952.94;;;12.53;100.00
71465;BME280;59274;49.874;9.154;2022-09-25T02:59:21;99956.81;;;12.59;100.00
71465;BME280;59274;49.874;9.154;2022-09-25T03:01:48;99954.47;;;12.57;100.00
71465;BME280;59274;49.874;9.154;2022-09-25T03:04:16;99958.78;;;12.55;100.00
71465;BME280;59274;49.874;9.154;2022-09-25T03:06:44;99950.22;;;12.57;100.00
71465;BME280;59274;49.874;9.154;2022-09-25T03:09:10;99950.59;;;12.51;100.00
71465;BME280;59274;49.874;9.154;2022-09-25T03:11:38;99957.63;;;12.49;100.00
71465;BME280;59274;49.874;9.154;2022-09-25T03:14:08;99953.34;;;12.44;100.00
71465;BME280;59274;49.874;9.154;2022-09-25T03:19:08;99950.59;;;12.51;100.00
71465;BME280;59274;49.874;9.154;2022-09-25T03:21:34;99958.41;;;12.49;100.00
71465;BME280;59274;49.874;9.154;2022-09-25T03:24:00;99961.13;;;12.53;100.00
71465;BME280;59274;49.874;9.154;2022-09-25T03:26:26;99959.16;;;12.53;100.00
71465;BME280;59274;49.874;9.154;2022-09-25T03:28:52;99960.34;;;12.49;100.00
71465;BME280;59274;49.874;9.154;2022-09-25T03:31:19;99967.75;;;12.48;100.00
71465;BME280;59274;49.874;9.154;2022-09-25T03:33:45;99959.56;;;12.48;100.00
71465;BME280;59274;49.874;9.154;2022-09-25T03:36:16;99956.06;;;12.48;100.00
71465;BME280;59274;49.874;9.154;2022-09-25T03:38:45;99949.84;;;12.54;100.00
71465;BME280;59274;49.874;9.154;2022-09-25T03:41:12;99951.00;;;12.61;100.00
71465;BME280;59274;49.874;9.154;2022-09-25T03:43:41;99957.63;;;12.52;100.00
71465;BME280;59274;49.874;9.154;2022-09-25T03:46:12;99953.34;;;12.44;100.00
71465;BME280;59274;49.874;9.154;2022-09-25T03:48:38;99953.75;;;12.50;100.00
71465;BME280;59274;49.874;9.154;2022-09-25T03:51:05;99948.28;;;12.46;100.00
71465;BME280;59274;49.874;9.154;2022-09-25T03:53:32;99951.41;;;12.45;100.00
71465;BME280;59274;49.874;9.154;2022-09-25T03:55:59;99948.69;;;12.41;100.00
71465;BME280;59274;49.874;9.154;2022-09-25T03:58:25;99950.63;;;12.41;100.00
71465;BME280;59274;49.874;9.154;2022-09-25T04:00:53;99956.88;;;12.41;100.00
71465;BME280;59274;49.874;9.154;2022-09-25T04:03:23;99957.66;;;12.42;100.00
71465;BME280;59274;49.874;9.154;2022-09-25T04:05:49;99956.84;;;12.45;100.00
71465;BME280;59274;49.874;9.154;2022-09-25T04:08:15;99960.34;;;12.49;100.00
71465;BME280;59274;49.874;9.154;2022-09-25T04:10:41;99950.63;;;12.44;100.00
71465;BME280;59274;49.874;9.154;2022-09-25T04:13:08;99955.28;;;12.47;100.00
71465;BME280;59274;49.874;9.154;2022-09-25T04:15:37;99947.91;;;12.48;100.00
71465;BME280;59274;49.874;9.154;2022-09-25T04:18:04;99946.34;;;12.47;100.00
71465;BME280;59274;49.874;9.154;2022-09-25T04:20:30;99945.94;;;12.52;100.00
71465;BME280;59274;49.874;9.154;2022-09-25T04:22:56;99946.31;;;12.61;100.00
71465;BME280;59274;49.874;9.154;2022-09-25T04:25:22;99938.94;;;12.54;100.00
71465;BME280;59274;49.874;9.154;2022-09-25T04:27:56;99955.28;;;12.62;100.00
71465;BME280;59274;49.874;9.154;2022-09-25T04:30:23;99953.72;;;12.61;100.00
71465;BME280;59274;49.874;9.154;2022-09-25T04:32:50;99953.34;;;12.48;100.00
71465;BME280;59274;49.874;9.154;2022-09-25T04:35:34;99945.59;;;12.43;100.00
71465;BME280;59274;49.874;9.154;2022-09-25T04:37:59;99952.56;;;12.51;100.00
71465;BME280;59274;49.874;9.154;2022-09-25T04:40:26;99956.47;;;12.46;100.00
71465;BME280;59274;49.874;9.154;2022-09-25T04:43:00;99952.97;;;12.49;100.00
71465;BME280;59274;49.874;9.154;2022-09-25T04:45:27;99951.03;;;12.50;100.00
71465;BME280;59274;49.874;9.154;2022-09-25T04:47:57;99949.81;;;12.51;100.00
71465;BME280;59274;49.874;9.154;2022-09-25T04:50:24;99949.84;;;12.54;100.00
71465;BME280;59274;49.874;9.154;2022-09-25T04:52:50;99951.78;;;12.54;100.00
71465;BME280;59274;49.874;9.154;2022-09-25T04:55:16;99950.63;;;12.55;100.00
71465;BME280;59274;49.874;9.154;2022-09-25T04:57:42;99957.59;;;12.63;100.00
71465;BME280;59274;49.874;9.154;2022-09-25T05:00:08;99954.09;;;12.59;100.00
71465;BME280;59274;49.874;9.154;2022-09-25T05:02:34;99952.19;;;12.49;100.00
71465;BME280;59274;49.874;9.154;2022-09-25T05:05:00;99954.50;;;12.54;100.00
71465;BME280;59274;49.874;9.154;2022-09-25T05:07:25;99952.56;;;12.54;100.00
71465;BME280;59274;49.874;9.154;2022-09-25T05:09:51;99956.84;;;12.55;100.00
71465;BME280;59274;49.874;9.154;2022-09-25T05:12:16;99952.16;;;12.52;100.00
71465;BME280;59274;49.874;9.154;2022-09-25T05:14:42;99954.88;;;12.52;100.00
71465;BME280;59274;49.874;9.154;2022-09-25T05:17:08;99958.00;;;12.44;100.00
71465;BME280;59274;49.874;9.154;2022-09-25T05:19:36;99954.91;;;12.42;100.00
71465;BME280;59274;49.874;9.154;2022-09-25T05:22:01;99957.66;;;12.42;100.00
71465;BME280;59274;49.874;9.154;2022-09-25T05:24:27;99952.97;;;12.46;100.00
71465;BME280;59274;49.874;9.154;2022-09-25T05:26:52;99949.06;;;12.47;100.00
71465;BME280;59274;49.874;9.154;2022-09-25T05:29:18;99952.97;;;12.46;100.00
71465;BME280;59274;49.874;9.154;2022-09-25T05:31:46;99953.34;;;12.44;100.00
71465;BME280;59274;49.874;9.154;2022-09-25T05:34:14;99954.13;;;12.45;100.00
71465;BME280;59274;49.874;9.154;2022-09-25T05:36:40;99955.31;;;12.40;100.00
71465;BME280;59274;49.874;9.154;2022-09-25T05:39:10;99961.13;;;12.39;100.00
71465;BME280;59274;49.874;9.154;2022-09-25T05:41:36;99952.56;;;12.44;100.00
71465;BME280;59274;49.874;9.154;2022-09-25T05:44:02;99961.13;;;12.46;100.00
71465;BME280;59274;49.874;9.154;2022-09-25T05:46:35;99954.91;;;12.49;100.00
71465;BME280;59274;49.874;9.154;2022-09-25T05:49:01;99958.00;;;12.37;100.00
71465;BME280;59274;49.874;9.154;2022-09-25T05:51:27;99955.28;;;12.47;100.00
71465;BME280;59274;49.874;9.154;2022-09-25T05:53:53;99961.53;;;12.48;100.00
71465;BME280;59274;49.874;9.154;2022-09-25T05:56:19;99956.06;;;12.51;100.00
71465;BME280;59274;49.874;9.154;2022-09-25T05:58:45;99966.56;;;12.53;100.00
71465;BME280;59274;49.874;9.154;2022-09-25T06:01:13;99961.13;;;12.57;100.00
71465;BME280;59274;49.874;9.154;2022-09-25T06:03:39;99964.63;;;12.57;100.00
71465;BME280;59274;49.874;9.154;2022-09-25T06:06:05;99954.09;;;12.59;100.00
71465;BME280;59274;49.874;9.154;2022-09-25T06:08:31;99955.25;;;12.58;100.00
71465;BME280;59274;49.874;9.154;2022-09-25T06:10:58;99951.00;;;12.64;100.00
71465;BME280;59274;49.874;9.154;2022-09-25T06:13:25;99953.72;;;12.64;100.00
71465;BME280;59274;49.874;9.154;2022-09-25T06:15:51;99961.88;;;12.71;100.00
71465;BME280;59274;49.874;9.154;2022-09-25T06:18:19;99959.13;;;12.75;100.00
71465;BME280;59274;49.874;9.154;2022-09-25T06:20:45;99959.16;;;12.71;100.00
71465;BME280;59274;49.874;9.154;2022-09-25T06:23:11;99964.19;;;12.76;100.00
71465;BME280;59274;49.874;9.154;2022-09-25T06:25:37;99963.41;;;12.76;100.00
71465;BME280;59274;49.874;9.154;2022-09-25T06:28:03;99954.44;;;12.82;100.00
71465;BME280;59274;49.874;9.154;2022-09-25T06:30:32;99954.84;;;12.77;100.00
71465;BME280;59274;49.874;9.154;2022-09-25T06:33:00;99958.31;;;12.81;100.00
71465;BME280;59274;49.874;9.154;2022-09-25T06:35:27;99954.44;;;12.82;100.00
71465;BME280;59274;49.874;9.154;2022-09-25T06:37:57;99961.47;;;12.76;100.00
71465;BME280;59274;49.874;9.154;2022-09-25T06:40:25;99956.00;;;12.76;100.00
71465;BME280;59274;49.874;9.154;2022-09-25T06:42:59;99962.63;;;12.82;100.00
71465;BME280;59274;49.874;9.154;2022-09-25T06:45:26;99970.78;;;12.82;100.00
71465;BME280;59274;49.874;9.154;2022-09-25T06:47:59;99968.84;;;12.79;100.00
71465;BME280;59274;49.874;9.154;2022-09-25T06:50:33;99968.47;;;12.84;100.00
71465;BME280;59274;49.874;9.154;2022-09-25T06:53:00;99973.50;;;12.86;100.00
71465;BME280;59274;49.874;9.154;2022-09-25T06:55:27;99973.50;;;12.82;100.00
71465;BME280;59274;49.874;9.154;2022-09-25T06:58:00;99977.00;;;12.86;100.00
71465;BME280;59274;49.874;9.154;2022-09-25T07:00:26;99973.09;;;12.87;100.00
71465;BME280;59274;49.874;9.154;2022-09-25T07:02:52;99975.81;;;12.87;100.00
71465;BME280;59274;49.874;9.154;2022-09-25T07:05:36;99975.44;;;12.92;100.00
71465;BME280;59274;49.874;9.154;2022-09-25T07:08:02;99970.00;;;12.92;100.00
71465;BME280;59274;49.874;9.154;2022-09-25T07:10:28;99971.94;;;12.88;100.00
71465;BME280;59274;49.874;9.154;2022-09-25T07:12:54;99972.31;;;12.87;100.00
71465;BME280;59274;49.874;9.154;2022-09-25T07:15:19;99972.72;;;12.92;100.00
71465;BME280;59274;49.874;9.154;2022-09-25T07:17:45;99971.16;;;12.88;100.00
71465;BME280;59274;49.874;9.154;2022-09-25T07:20:12;99967.69;;;12.84;100.00
71465;BME280;59274;49.874;9.154;2022-09-25T07:22:40;99965.72;;;12.88;100.00
71465;BME280;59274;49.874;9.154;2022-09-25T07:25:07;99969.19;;;12.95;100.00
71465;BME280;59274;49.874;9.154;2022-09-25T07:27:35;99974.19;;;13.11;100.00
71465;BME280;59274;49.874;9.154;2022-09-25T07:30:00;99973.41;;;13.11;100.00
71465;BME280;59274;49.874;9.154;2022-09-25T07:32:27;99976.56;;;13.13;100.00
71465;BME280;59274;49.874;9.154;2022-09-25T07:34:53;99974.22;;;13.01;100.00
71465;BME280;59274;49.874;9.154;2022-09-25T07:37:19;99980.88;;;13.00;100.00
71465;BME280;59274;49.874;9.154;2022-09-25T07:39:45;99976.59;;;12.99;100.00
71465;BME280;59274;49.874;9.154;2022-09-25T07:42:10;99980.09;;;12.95;100.00
71465;BME280;59274;49.874;9.154;2022-09-25T07:44:36;99980.91;;;12.92;100.00
71465;BME280;59274;49.874;9.154;2022-09-25T07:47:02;99986.72;;;12.98;100.00
71465;BME280;59274;49.874;9.154;2022-09-25T07:49:31;99982.00;;;13.02;100.00
71465;BME280;59274;49.874;9.154;2022-09-25T07:51:56;99993.28;;;13.11;100.00
71465;BME280;59274;49.874;9.154;2022-09-25T07:54:23;99986.31;;;13.07;100.00
71465;BME280;59274;49.874;9.154;2022-09-25T07:56:49;99987.09;;;13.07;100.00
71465;BME280;59274;49.874;9.154;2022-09-25T07:59:14;99983.94;;;13.12;100.00
71465;BME280;59274;49.874;9.154;2022-09-25T08:01:40;99975.75;;;13.16;100.00
71465;BME280;59274;49.874;9.154;2022-09-25T08:04:05;99989.41;;;13.16;100.00
71465;BME280;59274;49.874;9.154;2022-09-25T08:06:35;99987.81;;;13.25;100.00
71465;BME280;59274;49.874;9.154;2022-09-25T08:09:01;99983.91;;;13.26;100.00
71465;BME280;59274;49.874;9.154;2022-09-25T08:11:26;99984.34;;;13.21;100.00
71465;BME280;59274;49.874;9.154;2022-09-25T08:13:53;99987.81;;;13.25;100.00
71465;BME280;59274;49.874;9.154;2022-09-25T08:16:19;99987.00;;;13.32;100.00
71465;BME280;59274;49.874;9.154;2022-09-25T08:18:47;99989.34;;;13.30;100.00
71465;BME280;59274;49.874;9.154;2022-09-25T08:21:18;99991.25;;;13.37;100.00
71465;BME280;59274;49.874;9.154;2022-09-25T08:23:51;99981.13;;;13.37;100.00
71465;BME280;59274;49.874;9.154;2022-09-25T08:26:18;99986.16;;;13.49;100.00
71465;BME280;59274;49.874;9.154;2022-09-25T08:28:48;99986.13;;;13.56;100.00
71465;BME280;59274;49.874;9.154;2022-09-25T08:31:14;99982.28;;;13.36;100.00
71465;BME280;59274;49.874;9.154;2022-09-25T08:33:44;99986.91;;;13.53;100.00
71465;BME280;59274;49.874;9.154;2022-09-25T08:36:11;99981.44;;;13.53;99.67
71465;BME280;59274;49.874;9.154;2022-09-25T08:38:37;99980.69;;;13.49;99.76
71465;BME280;59274;49.874;9.154;2022-09-25T08:41:05;99984.94;;;13.50;100.00
71465;BME280;59274;49.874;9.154;2022-09-25T08:43:43;99981.88;;;13.48;100.00
71465;BME280;59274;49.874;9.154;2022-09-25T08:46:38;99982.97;;;13.58;100.00
71465;BME280;59274;49.874;9.154;2022-09-25T08:49:28;99979.53;;;13.47;100.00
71465;BME280;59274;49.874;9.154;2022-09-25T08:52:00;99975.63;;;13.48;100.00
71465;BME280;59274;49.874;9.154;2022-09-25T08:54:29;99978.34;;;13.48;100.00
71465;BME280;59274;49.874;9.154;2022-09-25T08:56:59;99980.69;;;13.49;100.00
71465;BME280;59274;49.874;9.154;2022-09-25T08:59:40;99977.56;;;13.47;100.00
71465;BME280;59274;49.874;9.154;2022-09-25T09:02:12;99975.97;;;13.53;100.00
71465;BME280;59274;49.874;9.154;2022-09-25T09:05:00;99979.06;;;13.62;99.99
71465;BME280;59274;49.874;9.154;2022-09-25T09:15:59;99983.78;;;13.51;100.00
71465;BME280;59274;49.874;9.154;2022-09-25T09:18:31;99983.44;;;13.49;100.00
71465;BME280;59274;49.874;9.154;2022-09-25T09:21:13;99987.31;;;13.48;100.00
71465;BME280;59274;49.874;9.154;2022-09-25T09:26:59;99985.06;;;13.29;100.00
71465;BME280;59274;49.874;9.154;2022-09-25T09:29:50;99993.66;;;13.24;100.00
71465;BME280;59274;49.874;9.154;2022-09-25T09:32:35;99989.78;;;13.18;100.00
71465;BME280;59274;49.874;9.154;2022-09-25T09:38:37;99983.59;;;13.00;100.00
71465;BME280;59274;49.874;9.154;2022-09-25T09:41:52;99982.41;;;13.01;100.00
71465;BME280;59274;49.874;9.154;2022-09-25T09:44:44;99986.31;;;13.03;100.00
71465;BME280;59274;49.874;9.154;2022-09-25T09:47:25;99988.25;;;13.13;100.00
71465;BME280;59274;49.874;9.154;2022-09-25T09:50:16;99982.03;;;13.13;100.00
71465;BME280;59274;49.874;9.154;2022-09-25T09:52:44;99983.56;;;13.17;100.00
71465;BME280;59274;49.874;9.154;2022-09-25T09:55:35;99979.59;;;13.29;100.00
71465;BME280;59274;49.874;9.154;2022-09-25T09:58:05;99976.09;;;13.32;100.00
71465;BME280;59274;49.874;9.154;2022-09-25T10:00:35;99971.03;;;13.30;100.00
71465;BME280;59274;49.874;9.154;2022-09-25T10:03:22;99980.00;;;13.31;100.00
71465;BME280;59274;49.874;9.154;2022-09-25T10:05:52;99971.38;;;13.40;100.00
71465;BME280;59274;49.874;9.154;2022-09-25T10:08:19;99972.13;;;13.47;100.00
71465;BME280;59274;49.874;9.154;2022-09-25T10:10:50;99975.25;;;13.46;100.00
71465;BME280;59274;49.874;9.154;2022-09-25T10:13:24;99969.38;;;13.51;100.00
71465;BME280;59274;49.874;9.154;2022-09-25T10:16:25;99965.41;;;13.59;100.00
71465;BME280;59274;49.874;9.154;2022-09-25T10:18:56;99964.25;;;13.63;100.00
71465;BME280;59274;49.874;9.154;2022-09-25T10:21:28;99970.00;;;13.72;99.90
71465;BME280;59274;49.874;9.154;2022-09-25T10:23:55;99961.81;;;13.72;100.00
71465;BME280;59274;49.874;9.154;2022-09-25T10:26:29;99965.38;;;13.66;99.55
71465;BME280;59274;49.874;9.154;2022-09-25T10:28:57;99964.59;;;13.69;99.85
71465;BME280;59274;49.874;9.154;2022-09-25T10:31:26;99958.66;;;13.81;99.73
71465;BME280;59274;49.874;9.154;2022-09-25T10:34:20;99957.00;;;13.98;99.66
71465;BME280;59274;49.874;9.154;2022-09-25T10:36:51;99961.28;;;13.95;97.33
71465;BME280;59274;49.874;9.154;2022-09-25T10:39:29;99959.78;;;13.91;98.58
71465;BME280;59274;49.874;9.154;2022-09-25T10:41:55;99963.19;;;14.02;97.63
71465;BME280;59274;49.874;9.154;2022-09-25T10:44:34;99963.91;;;14.13;96.26
71465;BME280;59274;49.874;9.154;2022-09-25T10:50:13;99962.56;;;14.28;94.39
71465;BME280;59274;49.874;9.154;2022-09-25T10:55:20;99970.94;;;14.07;95.04
71465;BME280;59274;49.874;9.154;2022-09-25T10:57:53;99967.13;;;13.94;96.06
71465;BME280;59274;49.874;9.154;2022-09-25T11:00:25;99980.50;;;13.85;96.72
71465;BME280;59274;49.874;9.154;2022-09-25T11:03:01;99968.78;;;13.84;96.94
71465;BME280;59274;49.874;9.154;2022-09-25T11:05:31;99970.75;;;13.84;97.23
71465;BME280;59274;49.874;9.154;2022-09-25T11:08:00;99968.66;;;14.02;97.78
71465;BME280;59274;49.874;9.154;2022-09-25T11:10:29;99967.81;;;14.08;96.17
71465;BME280;59274;49.874;9.154;2022-09-25T11:12:56;99960.38;;;14.13;97.06
71465;BME280;59274;49.874;9.154;2022-09-25T11:15:24;99970.44;;;14.23;95.23
71465;BME280;59274;49.874;9.154;2022-09-25T11:17:54;99962.94;;;14.30;95.61
71465;BME280;59274;49.874;9.154;2022-09-25T11:20:30;99964.56;;;14.28;93.72
71465;BME280;59274;49.874;9.154;2022-09-25T11:28:47;99955.88;;;14.40;94.34
71465;BME280;59274;49.874;9.154;2022-09-25T11:31:25;99964.84;;;14.37;92.18
71465;BME280;59274;49.874;9.154;2022-09-25T11:37:06;99953.47;;;14.49;92.37
71465;BME280;59274;49.874;9.154;2022-09-25T11:39:43;99959.91;;;14.66;91.96
71465;BME280;59274;49.874;9.154;2022-09-25T11:42:43;99958.81;;;14.60;91.33
71465;BME280;59274;49.874;9.154;2022-09-25T11:47:51;99961.28;;;14.47;91.74
71465;BME280;59274;49.874;9.154;2022-09-25T11:50:20;99959.31;;;14.47;91.60
71465;BME280;59274;49.874;9.154;2022-09-25T11:53:21;99950.28;;;14.50;92.92
71465;BME280;59274;49.874;9.154;2022-09-25T12:04:48;99953.59;;;14.31;93.42
71465;BME280;59274;49.874;9.154;2022-09-25T12:18:26;99945.13;;;14.60;91.62
71465;BME280;59274;49.874;9.154;2022-09-25T12:21:01;99949.97;;;14.82;91.54
71465;BME280;59274;49.874;9.154;2022-09-25T12:23:35;99942.34;;;15.01;87.87
71465;BME280;59274;49.874;9.154;2022-09-25T12:37:34;99928.50;;;15.42;82.14
71465;BME280;59274;49.874;9.154;2022-09-25T12:41:01;99936.81;;;15.35;79.88
71465;BME280;59274;49.874;9.154;2022-09-25T12:43:27;99925.44;;;15.66;79.44
71465;BME280;59274;49.874;9.154;2022-09-25T12:46:31;99939.16;;;15.66;79.52
71465;BME280;59274;49.874;9.154;2022-09-25T12:49:13;99930.94;;;15.66;78.58
71465;BME280;59274;49.874;9.154;2022-09-25T12:51:46;99931.28;;;15.69;78.98
71465;BME280;59274;49.874;9.154;2022-09-25T12:54:35;99929.69;;;15.71;79.75
71465;BME280;59274;49.874;9.154;2022-09-25T12:57:08;99929.47;;;15.58;79.12
71465;BME280;59274;49.874;9.154;2022-09-25T12:59:53;99932.03;;;15.42;81.35
71465;BME280;59274;49.874;9.154;2022-09-25T13:05:08;99923.81;;;15.42;83.19
71465;BME280;59274;49.874;9.154;2022-09-25T13:07:46;99926.13;;;15.44;84.12
71465;BME280;59274;49.874;9.154;2022-09-25T13:13:04;99928.81;;;16.01;79.68
71465;BME280;59274;49.874;9.154;2022-09-25T13:15:35;99941.41;;;15.98;80.42
71465;BME280;59274;49.874;9.154;2022-09-25T13:18:04;99939.22;;;15.86;81.18
71465;BME280;59274;49.874;9.154;2022-09-25T13:23:04;99941.56;;;15.61;82.01
71465;BME280;59274;49.874;9.154;2022-09-25T13:26:08;99939.72;;;15.20;84.07
71465;BME280;59274;49.874;9.154;2022-09-25T13:28:57;99951.47;;;15.21;84.09
71465;BME280;59274;49.874;9.154;2022-09-25T13:31:28;99949.31;;;15.05;85.78
71465;BME280;59274;49.874;9.154;2022-09-25T13:38:56;99955.28;;;14.63;87.68
71465;BME280;59274;49.874;9.154;2022-09-25T13:41:49;99951.69;;;14.25;89.42
71465;BME280;59274;49.874;9.154;2022-09-25T14:06:01;99959.31;;;13.41;94.45
71465;BME280;59274;49.874;9.154;2022-09-25T14:08:28;99955.78;;;13.40;95.17
71465;BME280;59274;49.874;9.154;2022-09-25T14:10:56;99956.56;;;13.37;95.78
71465;BME280;59274;49.874;9.154;2022-09-25T14:13:24;99958.97;;;13.28;95.29
71465;BME280;59274;49.874;9.154;2022-09-25T14:15:53;99958.63;;;13.19;96.63
71465;BME280;59274;49.874;9.154;2022-09-25T14:18:32;99954.75;;;13.02;97.73
71465;BME280;59274;49.874;9.154;2022-09-25T14:21:00;99966.03;;;13.01;98.68
71465;BME280;59274;49.874;9.154;2022-09-25T14:23:28;99961.44;;;12.90;99.02
71465;BME280;59274;49.874;9.154;2022-09-25T14:26:14;99967.31;;;12.75;100.00
71465;BME280;59274;49.874;9.154;2022-09-25T14:28:46;99964.59;;;12.71;100.00
71465;BME280;59274;49.874;9.154;2022-09-25T14:34:38;99953.31;;;12.62;100.00
71465;BME280;59274;49.874;9.154;2022-09-25T14:37:28;99947.47;;;12.60;100.00
71465;BME280;59274;49.874;9.154;2022-09-25T14:40:21;99941.28;;;12.56;100.00
71465;BME280;59274;49.874;9.154;2022-09-25T14:48:15;99954.50;;;12.54;100.00
71465;BME280;59274;49.874;9.154;2022-09-25T14:50:48;99958.78;;;12.48;100.00
71465;BME280;59274;49.874;9.154;2022-09-25T14:53:25;99955.69;;;12.49;100.00
71465;BME280;59274;49.874;9.154;2022-09-25T14:55:53;99950.63;;;12.48;100.00
71465;BME280;59274;49.874;9.154;2022-09-25T14:58:23;99958.00;;;12.51;100.00
71465;BME280;59274;49.874;9.154;2022-09-25T15:00:55;99949.84;;;12.47;100.00
71465;BME280;59274;49.874;9.154;2022-09-25T15:03:28;99953.34;;;12.48;100.00
71465;BME280;59274;49.874;9.154;2022-09-25T15:05:59;99945.19;;;12.48;100.00
71465;BME280;59274;49.874;9.154;2022-09-25T15:08:42;99948.66;;;12.45;100.00
71465;BME280;59274;49.874;9.154;2022-09-25T15:11:18;99941.28;;;12.45;100.00
71465;BME280;59274;49.874;9.154;2022-09-25T15:13:44;99943.63;;;12.40;100.00
71465;BME280;59274;49.874;9.154;2022-09-25T15:19:00;99938.94;;;12.37;100.00
71465;BME280;59274;49.874;9.154;2022-09-25T15:21:31;99940.53;;;12.34;100.00
71465;BME280;59274;49.874;9.154;2022-09-25T15:24:03;99939.75;;;12.34;100.00
71465;BME280;59274;49.874;9.154;2022-09-25T15:26:30;99947.53;;;12.28;100.00
71465;BME280;59274;49.874;9.154;2022-09-25T15:28:56;99940.53;;;12.34;100.00
71465;BME280;59274;49.874;9.154;2022-09-25T15:31:22;99942.47;;;12.34;100.00